Terminal Aerodrome Forecast
Issued by NWS Portland, OR

Home | Current Version | Previous Version | Text Only | Print | Product List | Glossary On
Versions: 1 2 3 4 5 6 7 8 9 10 11 12 13 14 15
000
FTUS46 KPQR 252327
TAFTTD
TAF
KTTD 252327Z 2600/2624 VRB04KT P6SM FEW025 OVC035
     FM260800 VRB03KT P6SM BKN025
     FM261600 VRB03KT P6SM SCT025 BKN040=

USA.gov is the U.S. government's official web portal to all federal, state and local government web resources and services.